Time;durP1;ratioP1;P1;durP2;ratioP2;P2;SDS_P1;SDS_P2;PMS_P1;PMS_P2;Temp;Humidity;BMP_temperature;BMP_pressure;BME280_temperature;BME280_humidity;BME280_pressure;Samples;Min_cycle;Max_cycle;Signal;HPM_P1;HPM_P2
2022/06/14 00:01:34;;;;;;;7.75;5.05;;;;;;;17.78;83.29;98794.38;1639508;86;21069;-83
2022/06/14 00:04:19;;;;;;;10.15;5.28;;;;;;;17.76;81.88;98791.83;1651559;85;21603;-80
2022/06/14 00:07:05;;;;;;;8.83;4.83;;;;;;;17.74;82.72;98794.18;1624468;86;21129;-79
2022/06/14 00:09:31;;;;;;;9.35;4.97;;;;;;;17.71;82.21;98789.95;1660949;86;21352;-78
2022/06/14 00:12:00;;;;;;;9.63;4.95;;;;;;;17.69;82.87;98798.41;1649332;85;21596;-79
2022/06/14 00:14:27;;;;;;;8.48;4.62;;;;;;;17.68;82.36;98798.84;1650809;85;21039;-79
2022/06/14 00:16:53;;;;;;;7.85;4.80;;;;;;;17.69;82.07;98802.34;1638051;86;21044;-79
2022/06/14 00:19:20;;;;;;;8.10;5.03;;;;;;;17.73;82.02;98810.43;1651994;85;21083;-78
2022/06/14 00:21:47;;;;;;;8.48;4.55;;;;;;;17.66;82.95;98816.50;1635240;86;21069;-78
2022/06/14 00:24:13;;;;;;;8.63;4.10;;;;;;;17.67;82.31;98821.31;1653192;85;21551;-79
2022/06/14 00:26:40;;;;;;;8.63;5.15;;;;;;;17.65;83.49;98809.56;1638219;86;21012;-79
2022/06/14 00:29:07;;;;;;;5.95;4.30;;;;;;;17.65;82.93;98813.50;1642136;85;21609;-79
2022/06/14 00:31:34;;;;;;;9.35;4.33;;;;;;;17.63;82.74;98807.49;1637681;86;21100;-80
2022/06/14 00:34:01;;;;;;;9.05;4.55;;;;;;;17.65;82.75;98806.94;1650216;85;21352;-79
2022/06/14 00:36:32;;;;;;;9.03;4.17;;;;;;;17.62;83.08;98803.16;1637325;86;21516;-78
2022/06/14 00:39:06;;;;;;;11.28;4.65;;;;;;;17.61;83.71;98808.05;1642348;85;21028;-78
2022/06/14 00:41:44;;;;;;;8.40;4.72;;;;;;;17.62;83.13;98811.52;1637207;86;21763;-78
2022/06/14 00:44:27;;;;;;;11.30;5.00;;;;;;;17.63;82.87;98810.59;1643998;85;21040;-81
2022/06/14 00:47:06;;;;;;;8.58;5.00;;;;;;;17.58;83.63;98817.41;1622667;87;21092;-79
2022/06/14 00:49:56;;;;;;;8.20;4.58;;;;;;;17.54;84.32;98813.27;1633559;86;21041;-79
2022/06/14 00:52:37;;;;;;;10.15;4.90;;;;;;;17.54;84.27;98817.69;1651583;85;21092;-78
2022/06/14 00:55:39;;;;;;;7.15;4.60;;;;;;;17.53;83.86;98819.92;1637503;86;21121;-79
2022/06/14 00:58:14;;;;;;;8.65;4.33;;;;;;;17.50;84.53;98817.86;1637039;85;21048;-79
2022/06/14 01:00:49;;;;;;;8.63;4.80;;;;;;;17.49;84.19;98821.91;1603869;88;21033;-78
2022/06/14 01:03:25;;;;;;;7.85;4.75;;;;;;;17.50;84.29;98823.59;1650102;85;21031;-80
2022/06/14 01:06:19;;;;;;;8.53;4.75;;;;;;;17.48;84.67;98824.15;1606474;88;21052;-78
2022/06/14 01:08:53;;;;;;;8.88;4.50;;;;;;;17.48;84.57;98819.73;1631679;86;21059;-80
2022/06/14 01:11:37;;;;;;;8.03;4.90;;;;;;;17.50;84.00;98823.59;1632608;86;21184;-79
2022/06/14 01:14:08;;;;;;;9.50;4.90;;;;;;;17.55;83.34;98824.63;1641508;85;21036;-78
2022/06/14 01:16:36;;;;;;;9.03;4.42;;;;;;;17.57;83.49;98827.56;1639222;87;21020;-79
2022/06/14 01:19:08;;;;;;;10.35;4.75;;;;;;;17.59;84.42;98827.01;1637951;86;21018;-82
2022/06/14 01:21:34;;;;;;;8.55;4.30;;;;;;;17.62;83.87;98830.76;1646176;85;21048;-78
2022/06/14 01:24:01;;;;;;;7.83;3.98;;;;;;;17.66;83.40;98831.44;1623024;87;22221;-78
2022/06/14 01:26:30;;;;;;;6.83;3.87;;;;;;;17.67;84.19;98830.51;1629371;86;21545;-79
2022/06/14 01:29:01;;;;;;;6.17;4.20;;;;;;;17.66;84.48;98831.44;1662685;85;20960;-81
2022/06/14 01:31:30;;;;;;;8.73;4.35;;;;;;;17.66;84.13;98834.90;1636331;85;21076;-78
2022/06/14 01:34:02;;;;;;;13.00;5.03;;;;;;;17.68;84.15;98833.50;1639043;86;21021;-83
2022/06/14 01:36:33;;;;;;;9.20;4.33;;;;;;;17.66;84.49;98840.63;1640412;85;21521;-78
2022/06/14 01:39:05;;;;;;;10.05;4.92;;;;;;;17.67;85.21;98851.06;1618799;87;21101;-79
2022/06/14 01:42:06;;;;;;;9.45;4.17;;;;;;;17.69;84.13;98852.30;1634803;86;21034;-78
2022/06/14 01:45:20;;;;;;;8.20;4.22;;;;;;;17.72;84.75;98842.90;1613420;87;21629;-78
2022/06/14 01:47:57;;;;;;;9.28;3.92;;;;;;;17.74;83.89;98849.39;1628838;86;21019;-78
2022/06/14 01:54:00;;;;;;;9.75;4.58;;;;;;;17.75;84.17;98864.25;1634944;88;21007;-78
2022/06/14 01:56:56;;;;;;;10.65;5.22;;;;;;;17.75;84.42;98869.50;1621418;87;21050;-79
2022/06/14 01:59:31;;;;;;;7.80;4.67;;;;;;;17.69;83.94;98866.28;1631723;88;21515;-79
2022/06/14 02:02:12;;;;;;;7.95;4.35;;;;;;;17.67;84.48;98865.52;1657060;85;21079;-78
2022/06/14 02:04:47;;;;;;;11.88;5.42;;;;;;;17.64;83.73;98856.48;1628245;86;20992;-78
2022/06/14 02:07:43;;;;;;;8.20;4.15;;;;;;;17.61;83.58;98860.63;1621205;87;21058;-79
2022/06/14 02:10:40;;;;;;;8.43;4.25;;;;;;;17.57;84.03;98860.90;1632650;86;21035;-79
2022/06/14 02:13:15;;;;;;;9.05;4.33;;;;;;;17.53;83.12;98858.91;1611786;87;21029;-79
2022/06/14 02:15:53;;;;;;;10.40;4.87;;;;;;;17.48;84.01;98859.15;1631243;86;21053;-79
2022/06/14 02:18:53;;;;;;;9.63;5.28;;;;;;;17.48;83.65;98867.52;1633308;88;21199;-79
2022/06/14 02:21:33;;;;;;;6.83;4.12;;;;;;;17.46;84.35;98870.22;1622796;87;21040;-80
2022/06/14 02:24:38;;;;;;;6.40;4.30;;;;;;;17.48;83.51;98872.77;1644757;85;21078;-78
2022/06/14 02:27:31;;;;;;;9.63;4.58;;;;;;;17.44;84.87;98866.83;1609039;88;21088;-79
2022/06/14 02:30:28;;;;;;;9.18;4.83;;;;;;;17.43;84.79;98870.89;1631179;86;21129;-78
2022/06/14 02:33:02;;;;;;;6.03;4.30;;;;;;;17.42;85.22;98870.02;1632608;86;21026;-79
2022/06/14 02:35:40;;;;;;;8.80;4.45;;;;;;;17.40;85.62;98871.05;1607322;87;21019;-81
2022/06/14 02:38:15;;;;;;;7.83;4.03;;;;;;;17.41;84.44;98876.70;1632372;86;21027;-79
2022/06/14 02:40:57;;;;;;;7.53;4.35;;;;;;;17.42;84.03;98881.00;1619506;87;21057;-79
2022/06/14 02:43:37;;;;;;;14.00;4.33;;;;;;;17.41;84.70;98879.33;1637369;86;21098;-79
2022/06/14 02:46:16;;;;;;;11.35;4.35;;;;;;;17.42;84.92;98877.06;1670255;84;21269;-79
2022/06/14 02:48:53;;;;;;;7.85;4.28;;;;;;;17.43;84.80;98880.08;1635686;86;21434;-78
2022/06/14 02:51:41;;;;;;;6.22;4.47;;;;;;;17.41;84.63;98882.79;1612623;87;21169;-78
2022/06/14 02:54:22;;;;;;;8.50;4.58;;;;;;;17.42;84.81;98887.09;1633138;86;20991;-79
2022/06/14 02:57:21;;;;;;;9.38;4.53;;;;;;;17.44;84.45;98892.27;1620419;87;21084;-79
2022/06/14 03:00:15;;;;;;;6.10;4.08;;;;;;;17.45;84.55;98892.67;1571716;89;21557;-83
2022/06/14 03:03:24;;;;;;;8.65;4.67;;;;;;;17.45;83.98;98896.14;1664265;85;21135;-78
2022/06/14 03:06:38;;;;;;;9.63;4.40;;;;;;;17.46;84.04;98895.19;1628939;88;21527;-84
2022/06/14 03:09:31;;;;;;;9.68;4.55;;;;;;;17.47;84.29;98898.69;1624563;87;21129;-78
2022/06/14 03:12:41;;;;;;;8.03;4.60;;;;;;;17.47;83.81;98903.47;1635323;86;21043;-80
2022/06/14 03:15:50;;;;;;;7.70;4.22;;;;;;;17.50;83.87;98914.27;1618726;87;21073;-78
2022/06/14 03:18:52;;;;;;;11.40;3.55;;;;;;;17.53;83.21;98919.36;1610652;89;21066;-80
2022/06/14 03:21:51;;;;;;;6.92;4.22;;;;;;;17.56;83.40;98914.39;1619335;87;21089;-79
2022/06/14 03:24:26;;;;;;;11.33;4.50;;;;;;;17.59;83.21;98920.80;1637141;86;21042;-79
2022/06/14 03:27:07;;;;;;;5.97;3.80;;;;;;;17.61;83.15;98917.14;1662627;85;21055;-79
2022/06/14 03:29:51;;;;;;;7.62;3.75;;;;;;;17.66;83.07;98919.02;1638584;87;21023;-79
2022/06/14 03:32:47;;;;;;;12.65;5.08;;;;;;;17.74;82.59;98919.91;1604452;89;21141;-80
2022/06/14 03:35:26;;;;;;;7.25;4.78;;;;;;;17.77;82.65;98921.53;1607969;88;21046;-78
2022/06/14 03:37:55;;;;;;;11.95;4.62;;;;;;;17.81;82.17;98925.20;1618190;86;21559;-79
2022/06/14 03:40:24;;;;;;;12.45;4.75;;;;;;;17.88;81.45;98927.87;1635755;86;21079;-82
2022/06/14 03:42:52;;;;;;;9.33;4.62;;;;;;;17.91;81.36;98924.72;1620937;87;21129;-83
2022/06/14 03:45:27;;;;;;;12.07;4.28;;;;;;;17.95;81.45;98932.80;1636762;86;21060;-81
2022/06/14 03:47:54;;;;;;;9.68;4.42;;;;;;;17.98;81.04;98943.97;1654552;85;21091;-80
2022/06/14 03:50:35;;;;;;;6.12;4.03;;;;;;;18.00;81.15;98944.72;1634261;86;21071;-79
2022/06/14 03:53:22;;;;;;;8.03;3.98;;;;;;;18.02;81.06;98945.48;1664491;85;21008;-79
2022/06/14 03:56:12;;;;;;;6.80;3.42;;;;;;;18.08;81.07;98936.39;1628252;85;21059;-80
2022/06/14 03:59:20;;;;;;;14.75;4.17;;;;;;;18.18;80.77;98945.44;1628628;86;21047;-79
2022/06/14 04:01:51;;;;;;;6.35;3.90;;;;;;;18.23;81.04;98950.45;1608765;88;21058;-80
2022/06/14 04:04:35;;;;;;;5.50;3.37;;;;;;;18.28;80.78;98947.93;1630139;87;21046;-80
2022/06/14 04:07:10;;;;;;;9.65;3.67;;;;;;;18.35;80.76;98947.56;1597276;89;21028;-80
2022/06/14 04:10:15;;;;;;;8.53;3.50;;;;;;;18.39;80.66;98951.23;1630268;86;21031;-79
2022/06/14 04:12:48;;;;;;;9.33;3.80;;;;;;;18.46;80.50;98950.38;1601271;88;21078;-79
2022/06/14 04:15:47;;;;;;;9.93;4.03;;;;;;;18.49;80.41;98960.27;1633106;88;20980;-81
2022/06/14 04:18:41;;;;;;;6.80;3.70;;;;;;;18.55;79.86;98964.80;1651876;85;21072;-80
2022/06/14 04:21:44;;;;;;;6.40;4.15;;;;;;;18.61;79.70;98972.33;1627344;88;21134;-80
2022/06/14 04:24:40;;;;;;;9.43;3.83;;;;;;;18.69;79.37;98968.76;1619700;87;21515;-80
2022/06/14 04:27:24;;;;;;;12.03;4.00;;;;;;;18.78;78.81;98971.29;1638545;86;20980;-80
2022/06/14 04:29:59;;;;;;;11.03;3.83;;;;;;;18.87;78.10;98965.02;1617872;87;21090;-80
2022/06/14 04:32:34;;;;;;;8.70;3.87;;;;;;;18.97;78.22;98973.69;1639873;86;21027;-81
2022/06/14 04:35:12;;;;;;;6.53;3.20;;;;;;;19.10;76.89;98974.63;1618344;87;21066;-80
2022/06/14 04:38:07;;;;;;;6.40;3.15;;;;;;;19.24;77.30;98981.68;1639591;86;20987;-80
2022/06/14 04:40:44;;;;;;;11.25;3.35;;;;;;;19.40;76.29;98985.52;1656140;85;21051;-81
2022/06/14 04:43:18;;;;;;;11.55;3.27;;;;;;;19.59;76.34;98983.86;1654974;85;21027;-82
2022/06/14 04:46:05;;;;;;;5.45;3.10;;;;;;;19.77;75.52;98992.41;1594676;88;21069;-81
2022/06/14 04:48:43;;;;;;;8.48;3.30;;;;;;;19.96;74.77;98999.52;1622365;87;21639;-81
2022/06/14 04:51:33;;;;;;;10.63;3.37;;;;;;;20.15;74.49;99006.21;1653000;85;21053;-81
2022/06/14 04:54:24;;;;;;;8.55;3.12;;;;;;;20.34;73.75;99004.05;1621496;86;21089;-80
2022/06/14 04:56:56;;;;;;;10.70;3.22;;;;;;;20.50;73.10;98999.91;1650332;85;21047;-80
2022/06/14 04:59:32;;;;;;;8.58;3.10;;;;;;;20.63;72.23;99002.58;1640270;86;21105;-79
2022/06/14 05:02:11;;;;;;;7.42;3.35;;;;;;;20.74;72.32;99007.98;1620109;85;21512;-79
2022/06/14 05:04:43;;;;;;;6.17;3.00;;;;;;;20.88;71.58;99015.45;1623906;86;21037;-79
2022/06/14 05:07:21;;;;;;;5.67;3.05;;;;;;;20.92;70.74;99011.64;1645792;85;21040;-80
2022/06/14 05:10:05;;;;;;;6.83;3.45;;;;;;;20.96;69.48;99014.44;1624995;86;21151;-80
2022/06/14 05:12:46;;;;;;;6.28;2.90;;;;;;;21.04;69.77;99014.75;1640949;85;21079;-80
2022/06/14 05:15:24;;;;;;;4.97;3.10;;;;;;;21.06;69.02;99019.45;1654900;85;21557;-80
2022/06/14 05:18:04;;;;;;;4.80;2.72;;;;;;;21.06;69.22;99018.97;1665515;85;21059;-80
2022/06/14 05:20:52;;;;;;;3.90;2.65;;;;;;;21.09;68.00;99019.70;1643094;87;21500;-80
2022/06/14 05:23:44;;;;;;;5.10;2.60;;;;;;;21.05;67.61;99021.26;1635414;86;21044;-80
2022/06/14 05:26:50;;;;;;;7.80;3.27;;;;;;;21.12;67.75;99028.76;1652252;85;21056;-80
2022/06/14 05:29:33;;;;;;;7.95;3.15;;;;;;;21.17;67.82;99034.09;1617335;87;21561;-80
2022/06/14 05:32:18;;;;;;;7.22;3.17;;;;;;;21.26;68.10;99030.79;1649460;85;21068;-79
2022/06/14 05:35:14;;;;;;;8.78;3.45;;;;;;;21.27;67.02;99036.95;1668176;85;21008;-77
2022/06/14 05:37:58;;;;;;;10.50;3.98;;;;;;;21.31;67.82;99030.94;1668963;85;21035;-80
2022/06/14 05:40:36;;;;;;;6.33;3.42;;;;;;;21.34;67.57;99042.64;1650073;85;21102;-81
2022/06/14 05:43:32;;;;;;;8.60;3.37;;;;;;;21.39;67.68;99040.53;1612648;87;21040;-82
2022/06/14 05:46:10;;;;;;;6.75;3.17;;;;;;;21.39;67.37;99038.72;1607171;87;21063;-81
2022/06/14 05:48:47;;;;;;;6.60;2.60;;;;;;;21.39;66.56;99033.43;1603766;87;21133;-80
2022/06/14 05:51:19;;;;;;;5.75;3.45;;;;;;;21.45;65.84;99037.48;1613314;87;21063;-80
2022/06/14 05:53:59;;;;;;;9.05;4.28;;;;;;;21.47;66.73;99045.28;1606955;87;21026;-80
2022/06/14 05:56:34;;;;;;;7.47;3.42;;;;;;;21.48;67.01;99043.86;1664934;85;20992;-80
2022/06/14 05:59:42;;;;;;;8.25;3.58;;;;;;;21.55;67.04;99049.09;1612911;87;21073;-81
2022/06/14 06:02:23;;;;;;;8.53;3.52;;;;;;;21.57;66.58;99055.12;1632558;87;21064;-80
2022/06/14 06:05:04;;;;;;;9.45;3.20;;;;;;;21.60;66.11;99057.52;1634734;86;21741;-80
2022/06/14 06:07:36;;;;;;;8.88;3.47;;;;;;;21.64;66.14;99048.41;1625328;87;21092;-81
2022/06/14 06:10:17;;;;;;;5.53;3.05;;;;;;;21.64;66.30;99048.90;1639613;86;21025;-83
2022/06/14 06:12:49;;;;;;;9.58;2.95;;;;;;;21.68;65.72;99052.17;1626503;87;21110;-81
2022/06/14 06:15:27;;;;;;;6.50;2.90;;;;;;;21.69;65.08;99048.11;1635068;85;21098;-81
2022/06/14 06:17:59;;;;;;;7.62;3.25;;;;;;;21.74;65.27;99053.05;1632424;87;21062;-81
2022/06/14 06:20:39;;;;;;;5.50;3.15;;;;;;;21.79;65.23;99061.03;1637552;86;21104;-81
2022/06/14 06:23:23;;;;;;;7.45;3.00;;;;;;;21.80;65.20;99059.23;1633489;86;21012;-83
2022/06/14 06:25:55;;;;;;;9.65;3.92;;;;;;;21.80;65.12;99060.06;1578701;88;21011;-82
2022/06/14 06:28:29;;;;;;;10.90;4.40;;;;;;;21.86;65.55;99058.78;1635824;86;21293;-81
2022/06/14 06:31:16;;;;;;;10.75;4.17;;;;;;;21.89;65.79;99063.03;1631293;85;21098;-79
2022/06/14 06:33:47;;;;;;;9.58;4.10;;;;;;;21.94;65.86;99063.52;1609831;88;21116;-77
2022/06/14 06:36:31;;;;;;;8.15;4.20;;;;;;;21.97;65.33;99062.83;1632208;86;21028;-79
2022/06/14 06:39:38;;;;;;;6.20;3.60;;;;;;;21.97;65.47;99068.12;1636555;86;20991;-85
2022/06/14 06:42:13;;;;;;;11.43;4.10;;;;;;;22.00;65.20;99071.88;1620855;85;21082;-79
2022/06/14 06:44:55;;;;;;;5.85;3.67;;;;;;;22.06;65.46;99062.63;1627861;86;21209;-78
2022/06/14 06:47:34;;;;;;;8.30;4.45;;;;;;;22.16;65.49;99074.26;1611994;86;21096;-78
2022/06/14 06:50:23;;;;;;;7.58;3.45;;;;;;;22.21;64.45;99073.42;1638239;86;21088;-79
2022/06/14 06:52:55;;;;;;;10.10;3.98;;;;;;;22.23;65.11;99074.64;1637868;85;21620;-78
2022/06/14 06:55:34;;;;;;;6.40;4.20;;;;;;;22.36;64.99;99079.44;1638094;86;21094;-77
2022/06/14 06:58:06;;;;;;;8.60;4.05;;;;;;;22.42;64.53;99084.73;1635809;86;21365;-79
2022/06/14 07:00:35;;;;;;;10.00;5.40;;;;;;;22.48;63.67;99088.73;1637608;86;21056;-78
2022/06/14 07:03:10;;;;;;;9.85;4.58;;;;;;;22.50;63.07;99084.16;1643213;86;21406;-79
2022/06/14 07:05:37;;;;;;;8.25;4.03;;;;;;;22.56;63.61;99082.38;1629162;86;21054;-78
2022/06/14 07:08:16;;;;;;;7.55;3.70;;;;;;;22.62;63.53;99085.44;1623994;86;21053;-83
2022/06/14 07:10:50;;;;;;;6.72;4.08;;;;;;;22.68;63.07;99087.23;1626985;86;21640;-79
2022/06/14 07:13:34;;;;;;;6.08;4.00;;;;;;;22.73;63.17;99083.29;1667791;85;21024;-79
2022/06/14 07:16:12;;;;;;;11.85;4.50;;;;;;;22.86;62.95;99085.00;1626470;87;21015;-78
2022/06/14 07:18:56;;;;;;;8.98;4.17;;;;;;;22.97;62.93;99090.34;1641436;86;21053;-79
2022/06/14 07:21:30;;;;;;;9.13;3.92;;;;;;;23.03;61.53;99084.11;1642538;86;21101;-77
2022/06/14 07:24:11;;;;;;;6.97;3.77;;;;;;;23.14;62.01;99086.41;1635386;86;22021;-79
2022/06/14 07:26:46;;;;;;;5.78;3.80;;;;;;;23.25;62.25;99090.90;1633464;86;21083;-79
2022/06/14 07:29:24;;;;;;;4.85;3.47;;;;;;;23.40;62.06;99096.34;1634875;86;21068;-78
2022/06/14 07:32:11;;;;;;;8.85;3.77;;;;;;;23.45;61.37;99092.83;1634572;86;21918;-79
2022/06/14 07:34:40;;;;;;;7.55;3.40;;;;;;;23.54;60.45;99096.09;1633489;86;20975;-78
2022/06/14 07:37:12;;;;;;;6.45;4.00;;;;;;;23.72;61.50;99096.45;1635375;86;21002;-78
2022/06/14 07:39:53;;;;;;;6.15;2.85;;;;;;;23.91;61.01;99095.00;1635817;86;21126;-78
2022/06/14 07:42:41;;;;;;;5.58;2.98;;;;;;;24.10;60.87;99093.87;1660907;84;21040;-77
2022/06/14 07:45:40;;;;;;;5.37;3.12;;;;;;;24.37;61.08;99093.91;1634662;86;21617;-78
2022/06/14 07:48:39;;;;;;;5.17;3.50;;;;;;;24.59;60.21;99098.31;1623469;87;21066;-79
2022/06/14 07:51:21;;;;;;;5.90;3.17;;;;;;;24.75;59.99;99108.05;1609136;88;21544;-81
2022/06/14 07:54:05;;;;;;;8.43;4.30;;;;;;;24.90;59.51;99103.73;1633379;87;21034;-78
2022/06/14 07:56:42;;;;;;;11.45;6.10;;;;;;;25.00;59.33;99101.98;1631084;87;21038;-83
2022/06/14 07:59:16;;;;;;;5.58;2.92;;;;;;;25.16;58.98;99108.17;1609846;87;21056;-79
2022/06/14 08:02:09;;;;;;;5.00;3.05;;;;;;;25.19;57.21;99111.41;1607992;88;21030;-79
2022/06/14 08:05:00;;;;;;;5.42;2.70;;;;;;;25.19;56.59;99119.89;1607495;88;21584;-78
2022/06/14 08:07:28;;;;;;;8.75;3.10;;;;;;;25.23;57.77;99113.83;1606156;88;21113;-78
2022/06/14 08:10:20;;;;;;;5.85;2.80;;;;;;;25.26;57.12;99113.58;1622243;87;21128;-78
2022/06/14 08:12:55;;;;;;;8.05;2.92;;;;;;;25.32;57.40;99111.22;1632394;86;21024;-79
2022/06/14 08:15:33;;;;;;;7.40;3.55;;;;;;;25.48;55.32;99124.55;1628587;86;21047;-80
2022/06/14 08:18:05;;;;;;;8.85;3.20;;;;;;;25.62;56.31;99118.02;1629810;86;21052;-79
2022/06/14 08:20:55;;;;;;;6.33;2.85;;;;;;;25.72;55.70;99120.23;1627848;87;21030;-78
2022/06/14 08:23:47;;;;;;;6.17;2.67;;;;;;;25.70;53.99;99116.36;1566358;88;21086;-79
2022/06/14 08:26:30;;;;;;;5.78;2.80;;;;;;;25.83;55.41;99122.80;1639721;86;21106;-79
2022/06/14 08:29:06;;;;;;;7.92;3.10;;;;;;;25.97;54.56;99121.11;1620560;87;21102;-78
2022/06/14 08:31:59;;;;;;;5.60;2.90;;;;;;;25.98;53.45;99116.63;1662102;85;21099;-79
2022/06/14 08:34:43;;;;;;;5.65;3.00;;;;;;;25.96;53.23;99117.25;1661351;85;21043;-79
2022/06/14 08:37:38;;;;;;;4.17;2.87;;;;;;;25.98;54.03;99120.62;1664137;85;20992;-79
2022/06/14 08:40:13;;;;;;;5.25;3.15;;;;;;;26.06;53.80;99125.27;1661769;85;21700;-75
2022/06/14 08:42:54;;;;;;;7.53;2.70;;;;;;;26.08;53.60;99124.64;1629342;86;21110;-77
2022/06/14 08:45:46;;;;;;;7.45;2.65;;;;;;;26.16;53.50;99123.46;1633394;86;21512;-77
2022/06/14 08:48:27;;;;;;;7.23;3.03;;;;;;;26.18;53.17;99120.17;1661216;85;21495;-76
2022/06/14 08:51:28;;;;;;;6.53;3.70;;;;;;;26.15;53.22;99112.47;1632329;86;20994;-75
2022/06/14 08:54:09;;;;;;;7.25;3.45;;;;;;;26.31;52.07;99122.09;1627246;86;21501;-77
2022/06/14 08:56:53;;;;;;;5.75;2.85;;;;;;;26.49;52.60;99126.75;1608940;86;22237;-76
2022/06/14 08:59:34;;;;;;;3.72;2.55;;;;;;;26.51;51.54;99132.78;1585590;86;21050;-74
2022/06/14 09:02:27;;;;;;;4.30;2.60;;;;;;;26.50;50.98;99131.08;1625989;86;21062;-76
2022/06/14 09:05:21;;;;;;;5.75;2.77;;;;;;;26.48;51.45;99131.71;1619627;87;21017;-75
2022/06/14 09:08:13;;;;;;;4.50;2.62;;;;;;;26.45;50.78;99129.34;1604257;88;21124;-75
2022/06/14 09:11:20;;;;;;;4.85;2.22;;;;;;;26.42;50.59;99127.77;1619660;87;21077;-75
2022/06/14 09:14:23;;;;;;;4.22;2.30;;;;;;;26.47;51.00;99124.71;1630193;86;21026;-75
2022/06/14 09:17:39;;;;;;;4.58;2.50;;;;;;;26.63;50.80;99123.69;1625359;87;21335;-75
2022/06/14 09:20:29;;;;;;;4.45;2.10;;;;;;;26.81;49.82;99126.98;1630223;86;21703;-75
2022/06/14 09:23:17;;;;;;;7.65;2.80;;;;;;;26.72;48.29;99135.33;1631268;86;21011;-75
2022/06/14 09:26:08;;;;;;;7.35;3.70;;;;;;;26.68;48.80;99136.12;1618531;87;21105;-74
2022/06/14 09:29:06;;;;;;;4.53;2.25;;;;;;;26.58;47.38;99128.59;1631723;86;21136;-80
2022/06/14 09:31:58;;;;;;;6.80;2.47;;;;;;;26.62;46.26;99138.48;1630918;88;21005;-86
2022/06/14 09:34:45;;;;;;;6.62;2.42;;;;;;;26.51;48.00;99136.28;1631630;87;21029;-85
2022/06/14 09:37:35;;;;;;;3.72;2.58;;;;;;;26.44;46.54;99143.63;1635818;87;21033;-85
2022/06/14 09:40:42;;;;;;;7.62;4.95;;;;;;;26.33;47.13;99136.12;1630739;87;21070;-85
2022/06/14 09:43:23;;;;;;;5.75;4.05;;;;;;;26.22;47.26;99139.39;1664505;85;21060;-85
2022/06/14 09:46:34;;;;;;;4.50;2.33;;;;;;;26.04;46.70;99144.05;1664029;85;20988;-86
2022/06/14 09:49:13;;;;;;;5.53;2.10;;;;;;;25.94;47.30;99139.19;1672626;85;21004;-85
2022/06/14 09:52:02;;;;;;;3.08;1.95;;;;;;;25.86;47.41;99139.82;1672806;84;21031;-86
2022/06/14 09:55:23;;;;;;;3.47;2.00;;;;;;;25.76;47.68;99143.78;1667709;85;21705;-85
2022/06/14 09:58:04;;;;;;;4.72;2.08;;;;;;;25.66;47.81;99142.06;1633568;86;21076;-84
2022/06/14 10:00:39;;;;;;;3.37;1.62;;;;;;;25.52;47.48;99132.13;1634326;88;21024;-85
2022/06/14 10:03:39;;;;;;;4.25;1.90;;;;;;;25.44;48.15;99143.92;1640310;87;21064;-85
2022/06/14 10:06:40;;;;;;;4.85;1.77;;;;;;;25.35;48.21;99140.73;1622814;87;21033;-84
2022/06/14 10:09:46;;;;;;;5.60;1.72;;;;;;;25.33;48.45;99140.86;1635472;88;21039;-85
2022/06/14 10:12:46;;;;;;;3.90;1.82;;;;;;;25.33;48.92;99134.70;1636503;88;21065;-85
2022/06/14 10:15:50;;;;;;;4.10;1.70;;;;;;;25.28;48.93;99135.08;1628909;87;21860;-85
2022/06/14 10:18:44;;;;;;;5.23;2.60;;;;;;;25.22;48.39;99144.08;1608016;88;21122;-85
2022/06/14 10:21:25;;;;;;;3.40;1.77;;;;;;;25.14;48.78;99142.04;1645086;86;21031;-85
2022/06/14 10:24:16;;;;;;;3.77;1.40;;;;;;;24.89;46.25;99143.25;1668834;85;21619;-84
2022/06/14 10:30:09;;;;;;;3.08;1.70;;;;;;;24.38;44.42;99138.12;1634708;88;21107;-83
2022/06/14 10:33:08;;;;;;;3.33;1.60;;;;;;;24.27;44.84;99140.30;1607200;88;21077;-84
2022/06/14 10:36:28;;;;;;;4.65;1.98;;;;;;;24.19;44.35;99136.09;1630849;87;21113;-84
2022/06/14 10:39:35;;;;;;;10.48;1.77;;;;;;;24.09;43.93;99136.48;1659612;85;21026;-83
2022/06/14 10:42:29;;;;;;;5.17;1.60;;;;;;;23.97;44.81;99136.98;1676408;85;21043;-85
2022/06/14 10:45:06;;;;;;;10.63;2.52;;;;;;;23.76;45.11;99147.48;1668332;84;21082;-85
2022/06/14 10:48:07;;;;;;;9.93;2.60;;;;;;;23.51;44.78;99171.11;1679612;85;21020;-83
2022/06/14 10:50:54;;;;;;;6.80;2.00;;;;;;;23.28;48.27;99187.45;1672798;85;20996;-84
2022/06/14 10:53:38;;;;;;;7.40;1.90;;;;;;;22.89;48.71;99198.77;1666076;85;21135;-84
2022/06/14 10:56:31;;;;;;;9.33;2.00;;;;;;;22.53;50.46;99204.49;1632892;88;21195;-83
2022/06/14 10:59:25;;;;;;;;;;;;;;;22.04;52.34;99201.73;1632158;86;21008;-84
2022/06/14 11:02:06;;;;;;;5.87;2.30;;;;;;;21.69;50.71;99206.02;1631865;88;20205;-85
2022/06/14 11:05:07;;;;;;;8.83;2.52;;;;;;;21.49;54.84;99197.64;1633461;86;22026;-85
2022/06/14 11:08:06;;;;;;;4.58;1.95;;;;;;;21.35;55.16;99195.07;1635140;87;21038;-85
2022/06/14 11:11:08;;;;;;;6.37;2.30;;;;;;;21.25;56.13;99199.65;1620377;86;21229;-86
2022/06/14 11:14:00;;;;;;;3.85;1.90;;;;;;;21.25;58.81;99194.36;1613761;87;21069;-86
2022/06/14 11:16:35;;;;;;;6.12;2.15;;;;;;;21.28;58.17;99192.45;1631910;86;20991;-82
2022/06/14 11:19:29;;;;;;;7.72;1.80;;;;;;;21.30;58.57;99201.97;1624444;87;21106;-83
2022/06/14 11:22:05;;;;;;;4.25;1.80;;;;;;;21.32;56.97;99202.71;1636041;86;20992;-84
2022/06/14 11:24:46;;;;;;;12.13;3.25;;;;;;;21.26;57.79;99196.52;1616426;88;21048;-82
2022/06/14 11:27:35;;;;;;;10.45;2.72;;;;;;;21.31;58.07;99204.12;1603293;88;21139;-80
2022/06/14 11:30:19;;;;;;;5.50;1.90;;;;;;;21.22;58.73;99197.67;1604669;88;21035;-82
2022/06/14 11:33:10;;;;;;;7.90;2.80;;;;;;;21.06;59.34;99198.70;1595265;87;21054;-83
2022/06/14 11:36:06;;;;;;;8.03;2.42;;;;;;;20.97;60.41;99197.14;1635736;86;21058;-81
2022/06/14 11:39:08;;;;;;;7.05;2.25;;;;;;;20.89;59.08;99188.88;1635401;86;21594;-80
2022/06/14 11:41:49;;;;;;;3.83;1.92;;;;;;;20.76;59.90;99188.38;1631114;86;20987;-82
2022/06/14 11:44:47;;;;;;;9.95;2.20;;;;;;;20.71;60.01;99186.52;1646993;86;21002;-82
2022/06/14 11:47:28;;;;;;;11.90;3.87;;;;;;;20.64;62.37;99172.84;1647092;85;21457;-81
2022/06/14 11:50:09;;;;;;;19.70;6.03;;;;;;;20.69;62.85;99173.02;1640061;86;21054;-81
2022/06/14 11:52:54;;;;;;;5.35;2.55;;;;;;;20.72;62.44;99166.23;1601296;86;22334;-83
2022/06/14 11:55:40;;;;;;;4.70;2.20;;;;;;;20.75;63.10;99170.84;1671664;85;21044;-81
2022/06/14 11:58:21;;;;;;;10.08;2.80;;;;;;;20.74;62.50;99172.26;1663594;85;21147;-83
2022/06/14 12:01:11;;;;;;;7.55;2.42;;;;;;;20.74;62.74;99165.65;1664338;85;21040;-79
2022/06/14 12:04:02;;;;;;;7.85;2.42;;;;;;;20.85;62.39;99167.12;1647709;85;21084;-84
2022/06/14 12:06:59;;;;;;;5.50;2.17;;;;;;;20.89;62.52;99166.42;1637934;86;21660;-82
2022/06/14 12:09:46;;;;;;;7.47;2.52;;;;;;;20.99;62.11;99164.40;1638394;85;21019;-83
2022/06/14 12:15:12;;;;;;;5.85;2.20;;;;;;;21.46;61.64;99162.13;1833656;75;22894;-82
2022/06/14 12:17:52;;;;;;;7.30;2.52;;;;;;;21.53;61.04;99149.35;1809005;78;21055;-78
2022/06/14 12:20:23;;;;;;;4.40;2.02;;;;;;;21.76;61.07;99158.30;1810602;77;20978;-80
2022/06/14 12:23:10;;;;;;;4.05;2.08;;;;;;;21.97;60.12;99153.31;1811289;78;21136;-80
2022/06/14 12:28:51;;;;;;;9.43;2.37;;;;;;;22.68;58.74;99153.48;1813584;77;21019;-80
2022/06/14 12:31:29;;;;;;;7.25;2.02;;;;;;;23.46;57.90;99150.70;1802981;78;20995;-80
2022/06/14 12:34:07;;;;;;;3.17;1.77;;;;;;;24.25;56.51;99148.88;1811927;77;21053;-79
2022/06/14 12:36:42;;;;;;;4.28;1.67;;;;;;;25.12;56.67;99151.97;1811126;77;21526;-83
2022/06/14 12:39:17;;;;;;;4.50;2.30;;;;;;;25.90;53.79;99151.92;1813228;77;21018;-82
2022/06/14 12:42:04;;;;;;;3.40;1.60;;;;;;;26.29;51.68;99148.04;1812098;77;21493;-82
2022/06/14 12:44:41;;;;;;;3.65;1.62;;;;;;;26.47;47.21;99147.37;1805771;77;21322;-78
2022/06/14 12:47:16;;;;;;;6.22;1.60;;;;;;;26.47;46.40;99151.37;1806389;77;21042;-79
2022/06/14 12:49:50;;;;;;;5.00;1.75;;;;;;;26.56;48.10;99150.52;1810127;78;21018;-80
2022/06/14 12:52:34;;;;;;;6.25;3.42;;;;;;;26.82;47.98;99153.99;1807085;77;21057;-80
2022/06/14 12:55:31;;;;;;;8.20;5.10;;;;;;;27.52;48.01;99151.95;1806356;78;21025;-80
2022/06/14 12:58:34;;;;;;;3.42;1.50;;;;;;;28.35;46.23;99143.48;1808038;78;21018;-81
2022/06/14 13:01:24;;;;;;;3.47;1.50;;;;;;;29.33;44.56;99137.33;1814633;78;21042;-80
2022/06/14 13:03:59;;;;;;;2.52;1.40;;;;;;;30.43;43.89;99139.66;1812815;78;21022;-82